Time;durP1;ratioP1;P1;durP2;ratioP2;P2;SDS_P1;SDS_P2;PMS_P1;PMS_P2;Temp;Humidity;BMP_temperature;BMP_pressure;BME280_temperature;BME280_humidity;BME280_pressure;Samples;Min_cycle;Max_cycle;Signal;HPM_P1;HPM_P2
2021/04/03 00:01:12;;;;;;;9.73;4.38;;;;;;;6.71;69.97;102986.72;5033461;28;20096;-51
2021/04/03 00:03:40;;;;;;;16.30;5.68;;;;;;;6.68;69.88;102998.25;5039716;28;20042;-50
2021/04/03 00:06:06;;;;;;;8.23;4.20;;;;;;;6.71;69.94;102994.16;5033237;28;20077;-47
2021/04/03 00:08:32;;;;;;;12.38;4.45;;;;;;;6.72;69.63;103002.13;5032854;28;20091;-53
2021/04/03 00:11:05;;;;;;;17.23;4.07;;;;;;;6.69;70.12;102993.59;5032936;28;20069;-52
2021/04/03 00:13:35;;;;;;;8.80;3.55;;;;;;;6.68;69.95;102992.75;5032939;28;20117;-50
2021/04/03 00:16:03;;;;;;;8.85;3.65;;;;;;;6.64;70.06;102994.41;5032773;28;20072;-54
2021/04/03 00:18:30;;;;;;;8.75;3.63;;;;;;;6.60;70.01;102989.66;5024002;28;20045;-49
2021/04/03 00:20:57;;;;;;;8.02;3.95;;;;;;;6.58;70.20;102992.69;5007084;28;20684;-53
2021/04/03 00:23:23;;;;;;;6.93;3.05;;;;;;;6.59;69.77;102999.03;5029769;28;20482;-51
2021/04/03 00:25:51;;;;;;;10.02;3.00;;;;;;;6.55;69.98;102992.38;5028247;28;20107;-51
2021/04/03 00:28:18;;;;;;;6.80;2.90;;;;;;;6.57;70.32;102999.28;5021460;28;20095;-52
2021/04/03 00:30:44;;;;;;;9.43;2.90;;;;;;;6.57;69.73;103002.03;5030417;28;20080;-51
2021/04/03 00:33:11;;;;;;;7.93;3.28;;;;;;;6.55;70.23;102998.72;5031504;28;20080;-52
2021/04/03 00:35:40;;;;;;;11.05;2.92;;;;;;;6.48;70.72;103006.38;5033464;28;20118;-53
2021/04/03 00:38:09;;;;;;;8.40;2.97;;;;;;;6.48;70.76;103009.13;5014200;28;20042;-50
2021/04/03 00:40:38;;;;;;;8.48;3.95;;;;;;;6.46;70.39;103008.53;5031517;28;20439;-52
2021/04/03 00:43:17;;;;;;;4.20;2.47;;;;;;;6.46;70.65;103005.78;5031327;28;20041;-50
2021/04/03 00:45:44;;;;;;;7.97;3.25;;;;;;;6.45;70.89;103009.66;5032439;28;20053;-49
2021/04/03 00:48:12;;;;;;;5.65;2.20;;;;;;;6.44;70.76;103013.47;5032388;28;20060;-49
2021/04/03 00:50:41;;;;;;;8.93;2.60;;;;;;;6.40;71.20;103011.53;5024827;28;20108;-47
2021/04/03 00:53:13;;;;;;;5.78;2.78;;;;;;;6.37;71.23;103007.38;5028707;28;20103;-48
2021/04/03 00:55:40;;;;;;;6.45;2.63;;;;;;;6.38;70.83;103008.22;5016980;28;20064;-52
2021/04/03 00:58:06;;;;;;;5.03;3.22;;;;;;;6.35;70.97;103004.06;5013128;28;20050;-53
2021/04/03 01:00:33;;;;;;;6.38;2.45;;;;;;;6.32;71.66;103003.75;5031653;28;20080;-55
2021/04/03 01:03:00;;;;;;;4.53;2.85;;;;;;;6.31;71.45;103007.59;5032147;28;20156;-49
2021/04/03 01:05:27;;;;;;;5.30;2.80;;;;;;;6.27;71.36;102999.03;5032911;28;20056;-50
2021/04/03 01:07:54;;;;;;;5.20;2.67;;;;;;;6.29;71.60;103004.28;5031122;28;20049;-50
2021/04/03 01:10:56;;;;;;;7.25;2.97;;;;;;;6.26;71.87;103011.13;5032184;28;20077;-51
2021/04/03 01:13:41;;;;;;;11.07;3.17;;;;;;;6.27;72.00;103010.03;4951719;29;20126;-51
2021/04/03 01:16:10;;;;;;;9.35;3.33;;;;;;;6.26;71.73;103005.63;5010233;28;20077;-47
2021/04/03 01:18:57;;;;;;;12.80;3.28;;;;;;;6.25;71.88;103008.66;5032384;28;20132;-49
2021/04/03 01:21:41;;;;;;;8.77;2.80;;;;;;;6.26;71.88;103000.13;5031451;28;20111;-52
2021/04/03 01:24:17;;;;;;;12.05;3.55;;;;;;;6.26;72.23;103011.13;5010310;28;20141;-50
2021/04/03 01:26:59;;;;;;;13.60;3.75;;;;;;;6.22;72.23;103015.50;5012377;28;20124;-53
2021/04/03 01:29:28;;;;;;;13.23;3.28;;;;;;;6.24;72.10;103010.56;5031849;28;20459;-52
2021/04/03 01:31:57;;;;;;;15.80;3.50;;;;;;;6.27;72.44;103006.47;5031050;28;20049;-52
2021/04/03 01:34:26;;;;;;;10.93;3.83;;;;;;;6.26;72.31;103000.13;5013622;28;20057;-50
2021/04/03 01:37:02;;;;;;;9.75;3.40;;;;;;;6.22;72.42;103003.66;5031510;28;20119;-52
2021/04/03 01:39:33;;;;;;;11.85;3.38;;;;;;;6.19;72.50;102995.94;5031722;28;20120;-49
2021/04/03 01:42:06;;;;;;;10.50;3.65;;;;;;;6.17;73.10;102996.19;5030946;28;20088;-51
2021/04/03 01:44:36;;;;;;;15.52;3.03;;;;;;;6.17;72.96;103000.88;5030933;28;20128;-50
2021/04/03 01:47:05;;;;;;;6.88;3.20;;;;;;;6.16;72.63;102989.03;5030665;28;20064;-48
2021/04/03 01:49:32;;;;;;;4.70;2.70;;;;;;;6.17;72.47;102989.88;5031428;28;20056;-52
2021/04/03 01:52:00;;;;;;;7.18;2.90;;;;;;;6.12;72.98;102994.22;5031531;28;20045;-51
2021/04/03 01:54:28;;;;;;;11.48;2.40;;;;;;;6.10;72.75;102992.81;5031140;28;20045;-48
2021/04/03 01:56:57;;;;;;;7.60;2.80;;;;;;;6.09;72.91;102993.91;5014366;28;20124;-51
2021/04/03 01:59:25;;;;;;;7.13;3.35;;;;;;;6.01;72.89;102983.41;5011068;28;20095;-48
2021/04/03 02:01:55;;;;;;;6.80;3.03;;;;;;;5.99;73.19;102993.81;5029076;28;20115;-54
2021/04/03 02:04:23;;;;;;;9.32;2.58;;;;;;;5.98;73.29;102997.66;5029648;28;20041;-50
2021/04/03 02:06:50;;;;;;;7.97;2.63;;;;;;;5.95;73.49;102987.19;5030647;28;20096;-49
2021/04/03 02:09:19;;;;;;;12.00;3.22;;;;;;;5.97;73.27;102991.31;5013971;28;20455;-48
2021/04/03 02:11:51;;;;;;;7.65;3.08;;;;;;;5.99;73.45;102982.81;5031280;28;20128;-50
2021/04/03 02:14:21;;;;;;;6.90;3.22;;;;;;;5.99;73.24;102985.56;5013430;28;20478;-50
2021/04/03 02:16:50;;;;;;;10.35;3.20;;;;;;;5.97;73.63;102980.34;5030841;28;20041;-50
2021/04/03 02:19:19;;;;;;;7.10;2.90;;;;;;;5.97;73.49;102976.75;5025948;28;20133;-50
2021/04/03 02:21:46;;;;;;;8.55;2.88;;;;;;;5.97;73.75;102982.25;5027244;28;20099;-52
2021/04/03 02:24:13;;;;;;;8.73;3.20;;;;;;;5.96;73.58;102975.06;5011621;28;20104;-53
2021/04/03 02:26:39;;;;;;;8.82;3.00;;;;;;;5.93;73.36;102972.88;5029118;28;20068;-51
2021/04/03 02:29:06;;;;;;;9.77;3.35;;;;;;;5.91;73.59;102972.28;5031317;28;20077;-49
2021/04/03 02:31:33;;;;;;;8.60;3.03;;;;;;;5.89;73.85;102974.47;5030794;28;20441;-49
2021/04/03 02:34:02;;;;;;;5.35;3.55;;;;;;;5.85;74.02;102981.59;5031373;28;20109;-50
2021/04/03 02:36:28;;;;;;;8.55;3.15;;;;;;;5.84;73.80;102988.13;5031066;28;20073;-53
2021/04/03 02:38:55;;;;;;;10.00;3.50;;;;;;;5.81;74.19;102972.97;5019440;28;20069;-54
2021/04/03 02:41:57;;;;;;;8.90;3.40;;;;;;;5.75;73.99;102974.00;5031671;28;20077;-48
2021/04/03 02:44:51;;;;;;;10.13;3.10;;;;;;;5.67;74.58;102979.13;5007326;28;20110;-51
2021/04/03 02:47:23;;;;;;;10.38;3.15;;;;;;;5.67;74.39;102968.13;5027752;28;20135;-50
2021/04/03 02:50:04;;;;;;;9.10;2.70;;;;;;;5.60;74.18;102973.00;5030725;28;20098;-48
2021/04/03 02:52:37;;;;;;;7.53;3.38;;;;;;;5.57;74.48;102968.88;5030408;28;20541;-49
2021/04/03 02:55:06;;;;;;;12.07;3.28;;;;;;;5.55;74.28;102971.06;5020090;28;20038;-51
2021/04/03 02:57:34;;;;;;;10.00;3.45;;;;;;;5.53;74.76;102976.78;5011461;28;20503;-48
2021/04/03 03:00:03;;;;;;;11.48;3.65;;;;;;;5.50;74.87;102971.84;5011335;28;20132;-51
2021/04/03 03:02:30;;;;;;;9.52;3.08;;;;;;;5.49;74.80;102986.66;5017424;28;20045;-50
2021/04/03 03:04:57;;;;;;;10.70;3.40;;;;;;;5.50;74.69;102980.06;5031078;28;20120;-49
2021/04/03 03:07:24;;;;;;;8.82;3.97;;;;;;;5.52;74.86;102988.88;5034419;28;20516;-50
2021/04/03 03:09:53;;;;;;;9.65;4.03;;;;;;;5.51;75.06;102986.38;5034777;28;20049;-47
2021/04/03 03:12:22;;;;;;;7.22;3.25;;;;;;;5.52;74.86;102999.03;5017501;28;20206;-49
2021/04/03 03:14:50;;;;;;;10.77;3.92;;;;;;;5.54;74.79;102996.84;5014733;28;20049;-50
2021/04/03 03:17:18;;;;;;;13.50;4.97;;;;;;;5.52;75.25;102991.63;5014950;28;20420;-49
2021/04/03 03:19:44;;;;;;;13.52;4.13;;;;;;;5.51;74.98;102981.72;5013948;28;20406;-51
2021/04/03 03:22:11;;;;;;;5.18;3.90;;;;;;;5.49;75.48;102983.91;5021980;28;20075;-51
2021/04/03 03:24:38;;;;;;;11.73;4.30;;;;;;;5.48;75.29;102987.72;5033461;28;20073;-50
2021/04/03 03:27:06;;;;;;;11.80;4.15;;;;;;;5.48;75.30;102986.91;5031963;28;20052;-47
2021/04/03 03:29:34;;;;;;;8.85;3.63;;;;;;;5.42;75.59;102982.44;5032483;28;20568;-50
2021/04/03 03:32:01;;;;;;;11.90;4.82;;;;;;;5.38;75.64;102979.34;5033704;28;20054;-50
2021/04/03 03:34:28;;;;;;;6.55;4.03;;;;;;;5.36;75.62;102972.47;5034503;28;20448;-50
2021/04/03 03:36:55;;;;;;;11.95;5.20;;;;;;;5.35;75.26;102982.63;5033779;28;20726;-54
2021/04/03 03:39:22;;;;;;;8.82;3.47;;;;;;;5.37;75.73;102980.47;5034477;28;20053;-51
2021/04/03 03:41:51;;;;;;;10.27;5.82;;;;;;;5.46;75.03;102978.91;5033782;28;20493;-51
2021/04/03 03:44:17;;;;;;;16.20;4.55;;;;;;;5.53;74.92;102976.78;5033579;28;20046;-50
2021/04/03 03:46:44;;;;;;;14.93;4.07;;;;;;;5.46;74.78;102978.91;5033823;28;20083;-50
2021/04/03 03:49:12;;;;;;;8.93;4.10;;;;;;;5.43;75.08;102979.41;5033090;28;20099;-48
2021/04/03 03:51:38;;;;;;;10.73;4.50;;;;;;;5.40;74.62;102968.94;5024841;28;20129;-48
2021/04/03 03:54:04;;;;;;;7.00;4.05;;;;;;;5.26;75.17;102986.06;5014596;28;20081;-49
2021/04/03 03:56:31;;;;;;;8.20;3.53;;;;;;;5.21;75.62;102986.00;5034439;28;20100;-51
2021/04/03 03:58:57;;;;;;;7.53;3.75;;;;;;;5.21;75.25;102984.09;5033820;28;20048;-51
2021/04/03 04:01:23;;;;;;;9.25;3.80;;;;;;;5.16;75.42;102989.53;5033330;28;20127;-51
2021/04/03 04:03:49;;;;;;;13.90;4.65;;;;;;;5.09;75.56;102991.59;5016136;28;20099;-50
2021/04/03 04:06:16;;;;;;;12.13;4.13;;;;;;;5.09;75.67;102988.88;5034036;28;20124;-50
2021/04/03 04:08:44;;;;;;;10.75;4.95;;;;;;;5.03;75.40;102995.34;5033941;28;20058;-47
2021/04/03 04:11:13;;;;;;;10.15;3.53;;;;;;;4.94;75.82;102985.91;5015044;28;20088;-50
2021/04/03 04:13:39;;;;;;;8.77;3.95;;;;;;;4.95;75.60;102993.06;5016559;28;20124;-47
2021/04/03 04:16:06;;;;;;;11.25;4.70;;;;;;;4.90;75.45;102984.75;5013847;28;20112;-49
2021/04/03 04:18:32;;;;;;;9.60;4.10;;;;;;;4.85;75.53;102981.94;5026611;28;20100;-49
2021/04/03 04:20:59;;;;;;;10.70;4.38;;;;;;;4.82;75.54;102977.78;5033246;28;20128;-48
2021/04/03 04:23:26;;;;;;;12.32;3.83;;;;;;;4.82;75.42;102979.69;5016285;28;20046;-49
2021/04/03 04:25:54;;;;;;;12.68;5.97;;;;;;;4.79;75.73;102989.25;5013656;28;20490;-50
2021/04/03 04:28:20;;;;;;;14.70;6.47;;;;;;;4.79;75.70;102993.94;5013512;28;20057;-50
2021/04/03 04:30:46;;;;;;;15.10;5.57;;;;;;;4.84;76.20;102986.59;5023348;28;20049;-53
2021/04/03 04:33:13;;;;;;;9.45;4.63;;;;;;;4.88;75.98;102990.50;5029104;28;20092;-48
2021/04/03 04:35:39;;;;;;;12.23;5.18;;;;;;;4.93;76.37;102998.81;5026784;28;20068;-50
2021/04/03 04:38:05;;;;;;;12.88;4.95;;;;;;;4.93;76.14;102990.56;5033248;28;20076;-49
2021/04/03 04:40:31;;;;;;;13.27;4.80;;;;;;;4.97;76.02;103007.38;5032806;28;20126;-47
2021/04/03 04:42:58;;;;;;;10.48;4.95;;;;;;;4.97;76.51;103001.88;5032843;28;20080;-51
2021/04/03 04:45:24;;;;;;;14.52;5.68;;;;;;;4.95;76.66;102998.53;5032756;28;20096;-47
2021/04/03 04:47:51;;;;;;;13.73;5.40;;;;;;;4.96;76.91;102997.47;5032700;28;20465;-48
2021/04/03 04:50:17;;;;;;;12.57;4.82;;;;;;;4.97;76.75;103007.38;5033124;28;20057;-47
2021/04/03 04:52:44;;;;;;;18.15;4.78;;;;;;;4.95;77.00;103001.28;5032797;28;20111;-48
2021/04/03 04:55:11;;;;;;;13.00;5.15;;;;;;;4.96;76.82;102991.97;5021856;28;20080;-54
2021/04/03 04:57:37;;;;;;;11.63;4.85;;;;;;;4.96;76.85;102991.97;5012902;28;20161;-50
2021/04/03 05:00:04;;;;;;;18.23;5.45;;;;;;;4.94;77.21;102999.63;5018971;28;20124;-49
2021/04/03 05:02:31;;;;;;;12.27;4.93;;;;;;;4.92;76.97;102988.09;5032770;28;20150;-52
2021/04/03 05:04:57;;;;;;;17.17;6.07;;;;;;;4.93;77.02;103000.72;5032988;28;20124;-50
2021/04/03 05:07:23;;;;;;;14.10;6.43;;;;;;;4.92;77.19;102993.59;5032205;28;20124;-50
2021/04/03 05:09:49;;;;;;;11.73;4.88;;;;;;;4.92;77.52;103004.56;5032249;28;20041;-48
2021/04/03 05:12:16;;;;;;;16.75;6.15;;;;;;;4.93;77.61;103000.72;5032188;28;20041;-47
2021/04/03 05:14:42;;;;;;;17.65;5.70;;;;;;;4.93;77.46;103006.19;5032297;28;20124;-49
2021/04/03 05:17:08;;;;;;;15.40;5.93;;;;;;;4.93;77.34;103007.03;5032897;28;20124;-49
2021/04/03 05:19:34;;;;;;;9.63;5.38;;;;;;;4.91;77.54;103006.47;5032483;28;20076;-47
2021/04/03 05:22:01;;;;;;;12.45;5.15;;;;;;;4.92;77.61;103001.81;5026075;28;20045;-51
2021/04/03 05:24:27;;;;;;;11.85;5.65;;;;;;;4.90;77.77;103006.69;5012446;28;20140;-48
2021/04/03 05:26:53;;;;;;;11.60;5.35;;;;;;;4.90;77.54;103006.69;5028157;28;20128;-51
2021/04/03 05:29:20;;;;;;;13.48;6.07;;;;;;;4.91;77.49;103013.88;5031620;28;20099;-49
2021/04/03 05:31:46;;;;;;;14.00;6.10;;;;;;;4.90;77.56;103017.69;5032209;28;20049;-48
2021/04/03 05:34:12;;;;;;;12.02;4.90;;;;;;;4.87;77.30;103012.72;5032291;28;20037;-49
2021/04/03 05:36:38;;;;;;;12.18;5.25;;;;;;;4.84;77.40;103010.47;5031782;28;20079;-50
2021/04/03 05:39:05;;;;;;;14.38;5.07;;;;;;;4.82;77.90;103009.88;5031782;28;20128;-49
2021/04/03 05:41:31;;;;;;;15.73;5.40;;;;;;;4.81;77.80;103017.31;5031954;28;20481;-48
2021/04/03 05:44:01;;;;;;;12.60;5.28;;;;;;;4.80;77.96;103012.88;5031866;28;20130;-48
2021/04/03 05:46:27;;;;;;;12.30;5.38;;;;;;;4.76;77.90;103006.25;5030316;28;20081;-49
2021/04/03 05:48:58;;;;;;;13.50;6.72;;;;;;;4.78;78.04;103008.72;5013764;28;20405;-50
2021/04/03 05:51:26;;;;;;;17.02;6.50;;;;;;;4.82;78.14;103012.63;5031795;28;20073;-54
2021/04/03 05:53:53;;;;;;;14.50;6.20;;;;;;;4.80;78.03;103014.78;5031961;28;20088;-48
2021/04/03 05:56:19;;;;;;;15.63;5.90;;;;;;;4.80;78.26;103020.28;5031436;28;20029;-48
2021/04/03 05:58:45;;;;;;;13.32;5.88;;;;;;;4.80;78.36;103017.53;5031587;28;20045;-50
2021/04/03 06:01:13;;;;;;;13.07;5.63;;;;;;;4.78;78.22;103030.69;5031140;28;20041;-48
2021/04/03 06:03:39;;;;;;;13.38;6.22;;;;;;;4.77;78.04;103024.34;5032203;28;20111;-50
2021/04/03 06:06:05;;;;;;;24.70;6.97;;;;;;;4.77;78.33;103034.50;5031060;28;20077;-52
2021/04/03 06:08:33;;;;;;;19.88;6.72;;;;;;;4.77;78.25;103031.75;5031756;28;20041;-49
2021/04/03 06:11:18;;;;;;;17.77;7.85;;;;;;;4.79;78.79;103035.09;5013325;28;20442;-49
2021/04/03 06:13:56;;;;;;;16.67;6.50;;;;;;;4.79;78.69;103035.09;5013953;28;20046;-52
2021/04/03 06:16:36;;;;;;;15.75;6.55;;;;;;;4.81;78.88;103030.19;5031198;28;20060;-48
2021/04/03 06:19:09;;;;;;;12.55;6.50;;;;;;;4.86;78.49;103024.78;5013568;28;20104;-51
2021/04/03 06:21:42;;;;;;;11.18;5.80;;;;;;;4.88;78.54;103025.34;5031613;28;20095;-49
2021/04/03 06:24:35;;;;;;;12.55;6.35;;;;;;;4.90;78.85;103040.47;5031547;28;20072;-48
2021/04/03 06:27:02;;;;;;;20.20;6.43;;;;;;;4.93;78.86;103033.66;5031181;28;20053;-49
2021/04/03 06:29:50;;;;;;;13.20;5.95;;;;;;;4.95;79.23;103034.22;5031286;28;20072;-47
2021/04/03 06:32:32;;;;;;;13.95;6.55;;;;;;;4.97;78.70;103040.31;5030935;28;20083;-49
2021/04/03 06:34:59;;;;;;;15.90;6.68;;;;;;;5.00;78.91;103031.59;5015927;28;20128;-51
2021/04/03 06:37:29;;;;;;;14.20;6.13;;;;;;;5.03;79.24;103043.97;5011412;28;20053;-54
2021/04/03 06:40:13;;;;;;;15.70;6.57;;;;;;;5.05;79.41;103036.31;5016144;28;20069;-51
2021/04/03 06:42:41;;;;;;;18.80;7.95;;;;;;;5.11;79.05;103040.78;5030172;28;20103;-51
2021/04/03 06:45:18;;;;;;;13.45;7.15;;;;;;;5.14;79.15;103032.84;5034591;28;20053;-49
2021/04/03 06:47:49;;;;;;;16.52;6.82;;;;;;;5.18;79.52;103038.69;5012834;28;20511;-49
2021/04/03 06:50:16;;;;;;;13.00;6.47;;;;;;;5.23;79.42;103038.75;5011076;28;20058;-49
2021/04/03 06:52:43;;;;;;;15.80;7.82;;;;;;;5.27;79.23;103040.72;5015389;28;20050;-49
2021/04/03 06:55:12;;;;;;;19.95;9.05;;;;;;;5.31;79.32;103041.91;5014920;28;20042;-49
2021/04/03 06:57:42;;;;;;;13.80;6.75;;;;;;;5.35;79.47;103044.94;5014895;28;20526;-47
2021/04/03 07:00:11;;;;;;;14.00;7.18;;;;;;;5.39;79.29;103041.47;5014787;28;20045;-51
2021/04/03 07:02:51;;;;;;;15.45;6.45;;;;;;;5.40;79.52;103054.09;5014650;28;20050;-47
2021/04/03 07:05:19;;;;;;;16.33;7.82;;;;;;;5.45;79.35;103054.16;5011024;28;20499;-48
2021/04/03 07:07:48;;;;;;;19.70;7.72;;;;;;;5.51;79.47;103053.16;5007619;28;20050;-52
2021/04/03 07:10:16;;;;;;;16.40;7.78;;;;;;;5.56;79.41;103054.31;5005782;28;20054;-49
2021/04/03 07:12:44;;;;;;;15.85;6.93;;;;;;;5.60;79.78;103053.53;5011136;28;20129;-47
2021/04/03 07:15:12;;;;;;;17.25;7.25;;;;;;;5.65;79.79;103058.25;5014913;28;20042;-51
2021/04/03 07:17:42;;;;;;;19.65;7.57;;;;;;;5.70;79.84;103063.81;5012206;28;20121;-47
2021/04/03 07:20:17;;;;;;;15.30;7.13;;;;;;;5.74;80.16;103060.31;4995493;28;20074;-50
2021/04/03 07:23:08;;;;;;;17.25;7.18;;;;;;;5.82;80.38;103065.38;5001538;28;20463;-47
2021/04/03 07:25:38;;;;;;;16.45;6.60;;;;;;;5.90;80.18;103072.34;5007661;28;20045;-50
2021/04/03 07:28:06;;;;;;;23.55;7.05;;;;;;;5.97;80.50;103064.72;5014103;28;20049;-48
2021/04/03 07:30:35;;;;;;;18.08;7.13;;;;;;;6.04;80.36;103073.59;5014715;28;20129;-51
2021/04/03 07:33:07;;;;;;;15.75;6.68;;;;;;;6.11;80.35;103071.50;5014929;28;20053;-46
2021/04/03 07:35:43;;;;;;;14.55;7.22;;;;;;;6.18;80.41;103068.53;4996639;28;20590;-50
2021/04/03 07:38:13;;;;;;;27.02;8.88;;;;;;;6.24;80.73;103084.84;5007706;28;20085;-49
2021/04/03 07:40:50;;;;;;;18.40;7.90;;;;;;;6.32;80.67;103083.53;5013929;28;20061;-52
2021/04/03 07:43:49;;;;;;;15.00;8.15;;;;;;;6.38;82.06;103077.81;4994234;28;20066;-50
2021/04/03 07:46:35;;;;;;;18.23;6.88;;;;;;;6.44;81.22;103079.53;4996000;28;20849;-49
2021/04/03 07:49:02;;;;;;;22.70;7.10;;;;;;;6.51;81.31;103080.13;5016321;28;20124;-48
2021/04/03 07:51:28;;;;;;;22.35;8.18;;;;;;;6.58;81.00;103086.25;5013066;28;20445;-52
2021/04/03 07:53:56;;;;;;;18.73;7.00;;;;;;;6.64;81.37;103087.97;5030190;28;20729;-48
2021/04/03 07:56:25;;;;;;;22.13;8.45;;;;;;;6.71;81.47;103085.81;5021527;28;20459;-50
2021/04/03 07:58:56;;;;;;;22.75;7.90;;;;;;;6.80;81.33;103088.09;5014156;28;20129;-53
2021/04/03 08:01:45;;;;;;;12.40;5.90;;;;;;;6.86;81.57;103089.81;5029235;28;20057;-48
2021/04/03 08:04:11;;;;;;;12.98;6.90;;;;;;;6.93;81.35;103076.63;5032090;28;20483;-49
2021/04/03 08:06:43;;;;;;;14.10;6.53;;;;;;;7.00;81.71;103074.47;5030369;28;20073;-50
2021/04/03 08:09:12;;;;;;;25.75;8.32;;;;;;;7.07;81.63;103078.66;4994027;28;20049;-46
2021/04/03 08:11:39;;;;;;;26.67;6.35;;;;;;;7.16;81.50;103088.09;5008926;28;20125;-53
2021/04/03 08:14:08;;;;;;;24.35;7.70;;;;;;;7.25;81.72;103080.16;5026002;28;20049;-47
2021/04/03 08:16:37;;;;;;;16.60;6.80;;;;;;;7.34;81.75;103084.91;5020701;28;20048;-46
2021/04/03 08:19:03;;;;;;;19.92;6.00;;;;;;;7.47;82.10;103089.09;5024807;28;20081;-48
2021/04/03 08:21:45;;;;;;;18.13;6.82;;;;;;;7.57;82.48;103094.66;5027563;28;20499;-48
2021/04/03 08:24:13;;;;;;;19.50;7.43;;;;;;;7.69;82.45;103092.53;5009160;28;20054;-47
2021/04/03 08:26:41;;;;;;;16.08;7.05;;;;;;;7.81;82.26;103100.59;5019947;28;20294;-47
2021/04/03 08:29:28;;;;;;;19.15;7.03;;;;;;;7.90;81.94;103088.75;5031131;28;20052;-50
2021/04/03 08:31:57;;;;;;;15.73;6.18;;;;;;;8.08;82.39;103097.63;4998548;28;20069;-49
2021/04/03 08:34:24;;;;;;;17.13;5.95;;;;;;;8.23;82.51;103092.19;5028179;28;20053;-46
2021/04/03 08:36:51;;;;;;;14.85;7.03;;;;;;;8.38;82.68;103095.00;5020389;28;20037;-47
2021/04/03 08:39:20;;;;;;;18.67;6.28;;;;;;;8.51;83.14;103099.97;5027283;28;20099;-48
2021/04/03 08:41:48;;;;;;;18.85;7.30;;;;;;;8.58;82.97;103095.00;5022305;28;20077;-46
2021/04/03 08:44:34;;;;;;;20.05;8.05;;;;;;;8.65;82.80;103090.06;5027421;28;20049;-47
2021/04/03 08:47:03;;;;;;;18.52;5.88;;;;;;;8.62;82.15;103089.78;5000628;28;20061;-48
2021/04/03 08:49:37;;;;;;;13.35;6.35;;;;;;;8.72;82.19;103090.59;5011484;28;20053;-46
2021/04/03 08:52:10;;;;;;;14.57;6.50;;;;;;;8.84;81.25;103096.66;5028940;28;20041;-53
2021/04/03 08:54:40;;;;;;;12.93;5.22;;;;;;;8.98;81.61;103091.41;5026490;28;20049;-47
2021/04/03 08:57:26;;;;;;;14.52;5.45;;;;;;;9.14;79.57;103088.38;5011431;28;20045;-47
2021/04/03 08:59:57;;;;;;;8.77;4.85;;;;;;;9.30;79.59;103088.34;5011092;28;20418;-51
2021/04/03 09:02:24;;;;;;;14.07;4.28;;;;;;;9.31;78.38;103092.75;4992797;28;20406;-46
2021/04/03 09:04:51;;;;;;;20.98;6.75;;;;;;;9.25;76.95;103094.72;5010032;28;20129;-47
2021/04/03 09:07:33;;;;;;;7.63;4.57;;;;;;;9.61;77.03;103103.75;5019017;28;20118;-45
2021/04/03 09:10:09;;;;;;;12.35;5.35;;;;;;;9.95;75.82;103093.66;5029321;28;20084;-46
2021/04/03 09:12:36;;;;;;;9.32;4.80;;;;;;;10.52;76.67;103095.84;5020352;28;20042;-45
2021/04/03 09:15:07;;;;;;;8.95;4.00;;;;;;;10.99;75.28;103097.94;5008875;28;20116;-50
2021/04/03 09:17:33;;;;;;;11.48;4.47;;;;;;;11.19;74.07;103097.78;5024183;28;20103;-47
2021/04/03 09:20:11;;;;;;;19.50;6.32;;;;;;;11.97;72.10;103098.28;5026531;28;20786;-46
2021/04/03 09:22:40;;;;;;;14.93;6.38;;;;;;;12.42;72.26;103093.19;5021501;28;20069;-46
2021/04/03 09:25:09;;;;;;;12.68;5.00;;;;;;;12.77;71.71;103090.69;5027427;28;20053;-46
2021/04/03 09:27:36;;;;;;;12.00;6.90;;;;;;;13.27;70.56;103093.75;5028209;28;20038;-48
2021/04/03 09:30:06;;;;;;;14.25;7.45;;;;;;;13.80;68.95;103083.78;5022385;28;20140;-50
2021/04/03 09:32:40;;;;;;;16.02;6.05;;;;;;;14.54;66.46;103085.19;5028542;28;20045;-48
2021/04/03 09:35:09;;;;;;;17.15;5.65;;;;;;;15.08;66.93;103088.88;5028334;28;20079;-47
2021/04/03 09:37:36;;;;;;;11.57;5.00;;;;;;;15.00;65.31;103086.84;5021622;28;20070;-47
2021/04/03 09:40:06;;;;;;;15.00;5.35;;;;;;;14.88;62.74;103090.22;5023192;28;20111;-50
2021/04/03 09:42:33;;;;;;;10.93;5.45;;;;;;;15.06;62.73;103094.75;5021622;28;20136;-53
2021/04/03 09:45:03;;;;;;;11.52;4.97;;;;;;;15.51;61.74;103091.94;5028088;28;20702;-51
2021/04/03 09:47:30;;;;;;;9.52;5.05;;;;;;;15.57;60.73;103093.41;5011197;28;20060;-47
2021/04/03 09:49:56;;;;;;;10.10;4.55;;;;;;;15.74;59.77;103097.13;5006936;28;20092;-48
2021/04/03 09:52:25;;;;;;;10.25;4.63;;;;;;;15.97;58.64;103091.41;4998986;28;20116;-48
2021/04/03 09:54:51;;;;;;;14.20;4.45;;;;;;;16.09;58.06;103086.84;4989297;28;20054;-46
2021/04/03 09:57:18;;;;;;;9.82;4.07;;;;;;;16.08;57.39;103093.59;4991511;28;20046;-51
2021/04/03 09:59:44;;;;;;;11.73;4.75;;;;;;;15.93;56.69;103091.25;4996994;28;20125;-46
2021/04/03 10:02:11;;;;;;;10.65;4.18;;;;;;;15.84;56.17;103090.41;4988795;28;20129;-48
2021/04/03 10:04:38;;;;;;;10.30;4.32;;;;;;;15.96;55.89;103087.00;4989320;28;20053;-49
2021/04/03 10:07:05;;;;;;;10.55;3.58;;;;;;;15.81;55.24;103082.66;4988757;28;20046;-51
2021/04/03 10:09:31;;;;;;;10.05;4.40;;;;;;;15.88;54.64;103091.41;4988681;28;20054;-52
2021/04/03 10:11:58;;;;;;;11.18;3.47;;;;;;;15.87;54.32;103083.34;4998005;28;20042;-51
2021/04/03 10:14:25;;;;;;;13.35;3.60;;;;;;;15.90;53.77;103089.09;4985414;28;20136;-58
2021/04/03 10:17:01;;;;;;;15.23;3.80;;;;;;;15.88;54.03;103080.25;5008267;28;20045;-53
2021/04/03 10:19:27;;;;;;;11.77;3.65;;;;;;;15.70;53.63;103073.75;5008470;28;20460;-48
2021/04/03 10:21:54;;;;;;;8.48;4.18;;;;;;;15.70;53.18;103095.31;5002359;28;20511;-51
2021/04/03 10:24:20;;;;;;;12.93;4.88;;;;;;;15.71;52.88;103081.00;5003675;28;20096;-52
2021/04/03 10:26:47;;;;;;;7.88;3.55;;;;;;;15.41;52.59;103083.81;5008157;28;20077;-49
2021/04/03 10:29:15;;;;;;;7.28;3.40;;;;;;;15.58;52.69;103081.09;5005910;28;20042;-50
2021/04/03 10:31:41;;;;;;;11.25;3.67;;;;;;;15.88;52.45;103080.25;5008713;28;20115;-48
2021/04/03 10:34:07;;;;;;;11.40;3.47;;;;;;;16.03;51.88;103076.97;5026323;28;20550;-48
2021/04/03 10:36:34;;;;;;;16.10;3.80;;;;;;;15.94;51.11;103070.53;5012294;28;20045;-49
2021/04/03 10:39:00;;;;;;;11.70;3.88;;;;;;;15.46;51.08;103078.13;5006043;28;20392;-50
2021/04/03 10:41:27;;;;;;;10.73;4.05;;;;;;;15.55;51.24;103076.16;5007499;28;20038;-50
2021/04/03 10:43:54;;;;;;;11.30;4.60;;;;;;;15.84;51.13;103073.63;4991483;28;20115;-56
2021/04/03 10:46:20;;;;;;;11.13;3.60;;;;;;;15.83;50.77;103067.22;5008676;28;20097;-50
2021/04/03 10:48:47;;;;;;;8.43;3.17;;;;;;;15.96;50.41;103065.47;5030986;28;20549;-48
2021/04/03 10:51:13;;;;;;;9.25;3.72;;;;;;;15.94;50.29;103059.34;5033928;28;20128;-57
2021/04/03 10:53:40;;;;;;;7.15;3.80;;;;;;;15.82;50.36;103068.38;5027528;28;20049;-53
2021/04/03 10:56:06;;;;;;;11.32;3.30;;;;;;;15.66;50.53;103067.19;5009404;28;20045;-50
2021/04/03 10:58:32;;;;;;;13.75;3.92;;;;;;;15.48;50.94;103078.59;5007849;28;20073;-48
2021/04/03 11:00:59;;;;;;;10.30;3.88;;;;;;;15.32;51.08;103066.19;5008089;28;20045;-46
2021/04/03 11:03:26;;;;;;;16.85;5.28;;;;;;;14.85;51.23;103062.94;5008844;28;20125;-49
2021/04/03 11:05:52;;;;;;;7.75;3.63;;;;;;;14.50;51.52;103075.00;5023986;28;20722;-48
2021/04/03 11:08:21;;;;;;;15.43;5.65;;;;;;;14.41;51.97;103066.56;5042510;28;20084;-49
2021/04/03 11:10:48;;;;;;;11.05;4.68;;;;;;;14.42;52.26;103070.19;5026361;28;20069;-48
2021/04/03 11:13:14;;;;;;;12.63;3.92;;;;;;;14.30;52.50;103072.66;5025697;28;20482;-54
2021/04/03 11:15:40;;;;;;;11.02;4.38;;;;;;;14.06;52.72;103080.47;5027687;28;20461;-54
2021/04/03 11:18:06;;;;;;;13.10;4.30;;;;;;;13.87;52.79;103063.88;5028449;28;20082;-46
2021/04/03 11:20:33;;;;;;;11.57;3.63;;;;;;;13.66;53.29;103069.03;5026090;28;20042;-47
2021/04/03 11:23:00;;;;;;;13.70;4.38;;;;;;;13.39;53.53;103069.03;5027020;28;20097;-53
2021/04/03 11:25:26;;;;;;;11.43;3.58;;;;;;;13.25;53.81;103068.19;5027547;28;20065;-53
2021/04/03 11:27:52;;;;;;;10.65;3.58;;;;;;;13.13;54.16;103065.09;5031032;28;20045;-50
2021/04/03 11:30:19;;;;;;;12.27;3.83;;;;;;;13.00;54.49;103071.44;5012027;28;20097;-50
2021/04/03 11:32:50;;;;;;;11.45;4.95;;;;;;;12.78;54.93;103070.13;5032455;28;20052;-48
2021/04/03 11:35:19;;;;;;;12.70;4.38;;;;;;;12.57;55.11;103066.03;5013302;28;20052;-51
2021/04/03 11:37:46;;;;;;;11.70;3.80;;;;;;;12.41;55.68;103064.63;5029786;28;20133;-47